createdAt,value
2017-08-18T00:00:22.023Z,90.55
2017-08-18T00:01:22.064Z,90.05
2017-08-18T00:02:22.008Z,88.83
2017-08-18T00:03:22.050Z,88.05
2017-08-18T00:04:22.029Z,86.65
2017-08-18T00:05:22.275Z,86.56
2017-08-18T00:06:22.024Z,86.92
2017-08-18T00:07:22.375Z,88.35
2017-08-18T00:08:22.525Z,86.02
2017-08-18T00:09:22.473Z,85.48
2017-08-18T00:10:22.506Z,85.70
2017-08-18T00:11:22.507Z,87.06
2017-08-18T00:12:22.651Z,86.33
2017-08-18T00:13:22.591Z,88.20
2017-08-18T00:14:22.436Z,87.92
2017-08-18T00:15:22.487Z,87.20
2017-08-18T00:16:22.843Z,88.81
2017-08-18T00:17:22.485Z,88.85
2017-08-18T00:18:22.121Z,88.19
2017-08-18T00:19:22.164Z,88.65
2017-08-18T00:20:22.112Z,88.74
2017-08-18T00:21:22.087Z,89.74
2017-08-18T00:22:22.027Z,89.63
2017-08-18T00:23:22.060Z,90.48
2017-08-18T00:24:22.102Z,90.28
2017-08-18T00:25:22.149Z,89.74
2017-08-18T00:26:22.038Z,90.35
2017-08-18T00:27:22.486Z,90.15
2017-08-18T00:28:22.518Z,90.31
2017-08-18T00:29:22.453Z,89.26
2017-08-18T00:30:22.908Z,89.90
2017-08-18T00:31:22.514Z,90.56
2017-08-18T00:32:22.549Z,90.25
2017-08-18T00:33:22.685Z,90.44
2017-08-18T00:34:22.531Z,91.22
2017-08-18T00:35:22.603Z,91.10
2017-08-18T00:36:22.141Z,91.16
2017-08-18T00:37:22.194Z,90.37
2017-08-18T00:38:22.079Z,90.17
2017-08-18T00:39:22.105Z,90.38
2017-08-18T00:40:22.159Z,89.38
2017-08-18T00:41:22.144Z,89.60
2017-08-18T00:42:22.208Z,90.31
2017-08-18T00:43:22.159Z,89.59
2017-08-18T00:44:22.500Z,90.15
2017-08-18T00:45:22.559Z,90.55
2017-08-18T00:46:22.493Z,89.64
2017-08-18T00:47:22.605Z,90.40
2017-08-18T00:48:22.565Z,90.43
2017-08-18T00:49:22.501Z,90.51
2017-08-18T00:50:22.680Z,90.43
2017-08-18T00:51:22.549Z,90.64
2017-08-18T00:52:22.602Z,90.57
2017-08-18T00:53:22.141Z,90.63
2017-08-18T00:54:22.105Z,91.03
2017-08-18T00:55:22.251Z,91.19
2017-08-18T00:56:22.153Z,90.76
2017-08-18T00:57:22.209Z,90.72
2017-08-18T00:58:22.143Z,90.52
2017-08-18T00:59:22.180Z,90.02
2017-08-18T01:02:33.615Z,90.41
2017-08-18T01:02:34.225Z,89.66
2017-08-18T01:02:34.831Z,90.43
2017-08-18T01:05:55.701Z,90.50
2017-08-18T01:05:56.715Z,90.51
2017-08-18T01:05:57.322Z,90.08
2017-08-18T01:08:35.891Z,89.11
2017-08-18T01:08:36.900Z,89.45
2017-08-18T01:08:37.511Z,89.01
2017-08-18T01:11:45.629Z,88.79
2017-08-18T01:11:46.642Z,88.05
2017-08-18T01:11:47.251Z,87.82
2017-08-18T01:14:36.791Z,87.79
2017-08-18T01:14:37.805Z,88.39
2017-08-18T01:14:38.416Z,87.79
2017-08-18T01:17:49.646Z,88.86
2017-08-18T01:17:50.256Z,87.51
2017-08-18T01:17:50.863Z,86.40
2017-08-18T01:20:32.607Z,87.45
2017-08-18T01:20:33.212Z,86.35
2017-08-18T01:20:33.821Z,86.41
2017-08-18T01:23:52.684Z,86.93
2017-08-18T01:23:53.697Z,87.08
2017-08-18T01:23:54.306Z,87.27
2017-08-18T01:27:04.791Z,86.63
2017-08-18T01:27:05.848Z,85.84
2017-08-18T01:27:06.459Z,86.39
2017-08-18T01:29:55.674Z,86.79
2017-08-18T01:29:56.690Z,87.33
2017-08-18T01:29:57.359Z,87.48
2017-08-18T01:32:34.889Z,87.52
2017-08-18T01:32:35.907Z,87.79
2017-08-18T01:32:36.513Z,88.08
2017-08-18T01:35:57.589Z,88.98
2017-08-18T01:35:58.226Z,88.72
2017-08-18T01:35:58.837Z,89.31
2017-08-18T01:39:06.957Z,89.38
2017-08-18T01:39:07.567Z,89.37
2017-08-18T01:39:08.176Z,90.26
2017-08-18T01:42:00.659Z,90.57
2017-08-18T01:42:01.877Z,90.50
2017-08-18T01:42:02.483Z,90.91
2017-08-18T01:44:32.929Z,91.11
2017-08-18T01:44:33.938Z,91.61
2017-08-18T01:44:34.550Z,91.62
2017-08-18T01:46:33.619Z,92.30
2017-08-18T01:46:34.631Z,91.98
2017-08-18T01:47:22.349Z,90.22
2017-08-18T01:50:30.770Z,90.83
2017-08-18T01:50:31.383Z,90.47
2017-08-18T01:50:31.992Z,89.96
2017-08-18T01:52:31.574Z,90.11
2017-08-18T01:52:32.183Z,90.20
2017-08-18T01:53:22.310Z,90.22
2017-08-18T01:56:30.608Z,90.35
2017-08-18T01:56:31.743Z,90.68
2017-08-18T01:56:32.351Z,90.49
2017-08-18T01:58:31.628Z,90.59
2017-08-18T01:58:32.640Z,90.42
2017-08-18T01:59:22.340Z,89.90
2017-08-18T02:00:22.867Z,90.24
2017-08-18T02:01:22.769Z,90.01
2017-08-18T02:02:22.750Z,89.82
2017-08-18T02:03:22.309Z,89.96
2017-08-18T02:04:22.851Z,90.02
2017-08-18T02:05:22.386Z,89.54
2017-08-18T02:06:22.335Z,89.83
2017-08-18T02:07:22.395Z,90.61
2017-08-18T02:08:22.343Z,90.20
2017-08-18T02:09:22.476Z,90.47
2017-08-18T02:10:22.358Z,90.70
2017-08-18T02:11:22.795Z,90.82
2017-08-18T02:12:22.855Z,90.59
2017-08-18T02:13:22.784Z,90.98
2017-08-18T02:14:22.775Z,90.90
2017-08-18T02:15:22.824Z,91.35
2017-08-18T02:16:22.762Z,91.31
2017-08-18T02:17:22.806Z,91.89
2017-08-18T02:18:22.847Z,92.09
2017-08-18T02:19:22.941Z,92.56
2017-08-18T02:20:22.805Z,91.98
2017-08-18T02:21:22.871Z,92.03
2017-08-18T02:22:22.914Z,91.85
2017-08-18T02:23:22.357Z,91.84
2017-08-18T02:24:22.430Z,92.20
2017-08-18T02:25:22.403Z,92.03
2017-08-18T02:26:22.443Z,92.13
2017-08-18T02:27:22.501Z,92.27
2017-08-18T02:28:22.441Z,92.13
2017-08-18T02:29:22.795Z,92.62
2017-08-18T02:30:22.834Z,92.43
2017-08-18T02:31:22.873Z,92.61
2017-08-18T02:32:22.841Z,92.62
2017-08-18T02:33:22.831Z,93.45
2017-08-18T02:34:22.898Z,93.77
2017-08-18T02:35:22.851Z,92.56
2017-08-18T02:36:22.826Z,92.35
2017-08-18T02:37:22.884Z,92.15
2017-08-18T02:38:22.431Z,92.63
2017-08-18T02:39:22.468Z,91.82
2017-08-18T02:40:22.427Z,91.96
2017-08-18T02:41:28.618Z,91.62
2017-08-18T02:42:22.555Z,92.34
2017-08-18T02:43:22.910Z,92.56
2017-08-18T02:44:22.850Z,92.95
2017-08-18T02:45:22.896Z,92.92
2017-08-18T02:46:22.836Z,93.19
2017-08-18T02:47:22.975Z,95.69
2017-08-18T02:48:22.933Z,93.49
2017-08-18T02:49:22.889Z,93.42
2017-08-18T02:50:22.888Z,93.40
2017-08-18T02:51:23.028Z,93.52
2017-08-18T02:52:22.965Z,93.76
2017-08-18T02:53:22.906Z,93.72
2017-08-18T02:54:22.859Z,93.47
2017-08-18T02:55:23.000Z,93.31
2017-08-18T02:56:22.951Z,93.36
2017-08-18T02:57:22.485Z,93.33
2017-08-18T02:58:22.540Z,93.94
2017-08-18T02:59:22.485Z,93.47
2017-08-18T03:00:22.532Z,93.98
2017-08-18T03:01:22.538Z,94.04
2017-08-18T03:02:22.575Z,94.09
2017-08-18T03:03:22.557Z,94.08
2017-08-18T03:04:22.500Z,93.97
2017-08-18T03:05:22.935Z,94.00
2017-08-18T03:06:22.969Z,94.01
2017-08-18T03:07:23.006Z,94.18
2017-08-18T03:08:22.942Z,94.18
2017-08-18T03:09:22.988Z,94.41
2017-08-18T03:10:22.950Z,94.05
2017-08-18T03:11:22.931Z,95.13
2017-08-18T03:12:23.073Z,94.79
2017-08-18T03:13:22.509Z,94.54
2017-08-18T03:14:22.997Z,94.64
2017-08-18T03:15:22.554Z,95.12
2017-08-18T03:16:22.596Z,94.91
2017-08-18T03:17:22.537Z,95.49
2017-08-18T03:18:22.512Z,94.74
2017-08-18T03:19:22.560Z,95.10
2017-08-18T03:20:22.534Z,95.24
2017-08-18T03:21:22.974Z,95.20
2017-08-18T03:22:23.068Z,95.39
2017-08-18T03:23:23.112Z,95.31
2017-08-18T03:24:22.981Z,95.30
2017-08-18T03:25:23.006Z,95.24
2017-08-18T03:26:22.949Z,95.58
2017-08-18T03:27:23.005Z,95.44
2017-08-18T03:28:22.968Z,94.87
2017-08-18T03:29:23.163Z,95.08
2017-08-18T03:30:23.014Z,94.99
2017-08-18T03:31:22.996Z,95.00
2017-08-18T03:32:22.632Z,94.93
2017-08-18T03:33:22.580Z,94.27
2017-08-18T03:34:22.637Z,94.61
2017-08-18T03:35:22.580Z,94.38
2017-08-18T03:36:22.644Z,94.31
2017-08-18T03:37:22.582Z,94.22
2017-08-18T03:38:22.626Z,94.27
2017-08-18T03:39:37.407Z,93.44
2017-08-18T03:40:22.619Z,93.28
2017-08-18T03:41:23.378Z,93.86
2017-08-18T03:42:23.030Z,93.66
2017-08-18T03:43:23.063Z,94.03
2017-08-18T03:44:23.009Z,93.90
2017-08-18T03:45:23.003Z,93.64
2017-08-18T03:46:23.052Z,93.72
2017-08-18T03:47:23.107Z,94.02
2017-08-18T03:48:23.167Z,94.02
2017-08-18T03:49:22.630Z,93.96
2017-08-18T03:50:22.693Z,94.30
2017-08-18T03:51:06.399Z,94.30
2017-08-18T03:53:00.621Z,93.95
2017-08-18T03:53:01.635Z,94.34
2017-08-18T03:53:22.697Z,94.50
2017-08-18T03:54:23.067Z,94.45
2017-08-18T03:55:23.041Z,94.73
2017-08-18T03:56:23.082Z,95.04
2017-08-18T03:57:23.021Z,94.98
2017-08-18T03:58:23.132Z,95.03
2017-08-18T03:59:23.098Z,94.97
2017-08-18T04:00:23.062Z,95.45
2017-08-18T04:01:23.130Z,95.98
2017-08-18T04:02:23.101Z,96.13
2017-08-18T04:03:23.068Z,95.52
2017-08-18T04:04:23.133Z,95.65
2017-08-18T04:05:23.098Z,96.87
2017-08-18T04:06:23.151Z,96.21
2017-08-18T04:07:22.702Z,96.58
2017-08-18T04:08:22.656Z,96.32
2017-08-18T04:09:22.699Z,96.48
2017-08-18T04:10:22.744Z,96.77
2017-08-18T04:11:22.694Z,96.59
2017-08-18T04:12:22.755Z,96.44
2017-08-18T04:13:22.707Z,96.63
2017-08-18T04:14:22.674Z,97.14
2017-08-18T04:15:23.227Z,96.55
2017-08-18T04:16:23.162Z,96.69
2017-08-18T04:17:23.108Z,97.22
2017-08-18T04:18:23.111Z,97.12
2017-08-18T04:19:23.184Z,97.10
2017-08-18T04:20:23.141Z,96.52
2017-08-18T04:21:23.198Z,97.35
2017-08-18T04:22:23.161Z,97.12
2017-08-18T04:23:23.160Z,96.53
2017-08-18T04:24:23.199Z,96.74
2017-08-18T04:25:22.744Z,96.90
2017-08-18T04:26:22.787Z,96.48
2017-08-18T04:27:22.856Z,96.19
2017-08-18T04:28:22.816Z,96.38
2017-08-18T04:29:22.790Z,96.27
2017-08-18T04:30:22.810Z,96.09
2017-08-18T04:31:23.087Z,96.28
2017-08-18T04:32:22.959Z,95.96
2017-08-18T04:33:23.138Z,95.73
2017-08-18T04:34:22.810Z,96.11
2017-08-18T04:35:23.164Z,95.61
2017-08-18T04:36:23.180Z,95.63
2017-08-18T04:37:23.425Z,95.44
2017-08-18T04:38:23.443Z,95.15
2017-08-18T04:39:23.183Z,95.07
2017-08-18T04:40:23.232Z,95.16
2017-08-18T04:41:23.184Z,95.18
2017-08-18T04:42:22.772Z,95.16
2017-08-18T04:43:22.863Z,95.00
2017-08-18T04:44:22.827Z,94.54
2017-08-18T04:45:22.786Z,94.14
2017-08-18T04:46:23.598Z,94.66
2017-08-18T04:47:22.840Z,94.34
2017-08-18T04:48:22.822Z,93.79
2017-08-18T04:49:22.803Z,94.22
2017-08-18T04:50:22.821Z,93.95
2017-08-18T04:51:23.330Z,94.05
2017-08-18T04:52:23.276Z,93.81
2017-08-18T04:53:23.267Z,93.57
2017-08-18T04:54:23.456Z,93.25
2017-08-18T04:55:23.226Z,92.37
2017-08-18T04:56:23.195Z,92.38
2017-08-18T04:57:23.276Z,92.48
2017-08-18T04:58:23.288Z,92.32
2017-08-18T04:59:23.360Z,91.92
2017-08-18T05:00:22.876Z,91.43
2017-08-18T05:01:22.871Z,91.23
2017-08-18T05:02:22.880Z,91.27
2017-08-18T05:03:23.558Z,90.64
2017-08-18T05:04:22.839Z,91.04
2017-08-18T05:05:22.839Z,90.75
2017-08-18T05:06:22.971Z,89.50
2017-08-18T05:07:22.896Z,89.59
2017-08-18T05:08:22.900Z,89.17
2017-08-18T05:09:23.378Z,89.07
2017-08-18T05:10:23.373Z,88.72
2017-08-18T05:11:23.285Z,88.43
2017-08-18T05:12:23.437Z,88.04
2017-08-18T05:13:23.359Z,87.43
2017-08-18T05:14:23.468Z,87.95
2017-08-18T05:15:23.280Z,87.90
2017-08-18T05:16:24.487Z,86.92
2017-08-18T05:17:22.879Z,86.84
2017-08-18T05:18:23.296Z,86.32
2017-08-18T05:19:22.881Z,86.63
2017-08-18T05:20:22.917Z,86.86
2017-08-18T05:21:22.952Z,86.36
2017-08-18T05:22:23.021Z,86.41
2017-08-18T05:23:22.908Z,86.48
2017-08-18T05:24:22.926Z,86.13
2017-08-18T05:25:22.936Z,84.88
2017-08-18T05:26:23.167Z,85.43
2017-08-18T05:27:22.893Z,84.18
2017-08-18T05:28:23.373Z,83.27
2017-08-18T05:29:23.559Z,84.00
2017-08-18T05:30:23.544Z,82.73
2017-08-18T05:31:29.375Z,83.56
2017-08-18T05:32:22.912Z,84.38
2017-08-18T05:33:24.150Z,83.26
2017-08-18T05:34:23.389Z,82.72
2017-08-18T05:35:22.935Z,83.52
2017-08-18T05:36:22.912Z,82.54
2017-08-18T05:37:23.002Z,83.11
2017-08-18T05:38:22.982Z,83.06
2017-08-18T05:39:22.949Z,83.16
2017-08-18T05:40:23.024Z,82.06
2017-08-18T05:41:22.994Z,82.42
2017-08-18T05:42:23.077Z,83.68
2017-08-18T05:43:22.978Z,81.21
2017-08-18T05:44:22.930Z,81.49
2017-08-18T05:45:23.484Z,81.73
2017-08-18T05:46:23.887Z,80.17
2017-08-18T05:47:23.435Z,81.29
2017-08-18T05:48:23.536Z,81.50
2017-08-18T05:49:23.465Z,80.13
2017-08-18T05:50:23.533Z,80.40
2017-08-18T05:51:23.414Z,80.97
2017-08-18T05:52:23.666Z,79.08
2017-08-18T05:53:23.805Z,80.52
2017-08-18T05:54:23.043Z,80.58
2017-08-18T05:55:23.060Z,79.66
2017-08-18T05:56:23.060Z,79.59
2017-08-18T05:57:23.039Z,80.92
2017-08-18T05:58:23.200Z,81.05
2017-08-18T05:59:23.284Z,80.90
2017-08-18T06:00:23.113Z,79.42
2017-08-18T06:01:23.078Z,78.95
2017-08-18T06:02:23.074Z,79.98
2017-08-18T06:03:23.383Z,79.88
2017-08-18T06:04:23.785Z,80.18
2017-08-18T06:05:23.459Z,78.95
2017-08-18T06:06:25.480Z,79.29
2017-08-18T06:07:25.040Z,78.09
2017-08-18T06:08:23.096Z,78.19
2017-08-18T06:09:23.468Z,79.57
2017-08-18T06:10:23.932Z,79.04
2017-08-18T06:11:24.996Z,78.55
2017-08-18T07:08:33.581Z,77.81
2017-08-18T07:09:04.749Z,77.68
2017-08-18T07:09:57.684Z,77.43
2017-08-18T07:10:33.398Z,77.19
2017-08-18T07:11:33.499Z,77.76
2017-08-18T07:12:33.371Z,77.29
2017-08-18T07:13:54.311Z,77.08
2017-08-18T07:14:33.417Z,76.92
2017-08-18T07:15:33.754Z,75.42
2017-08-18T07:16:54.297Z,76.38
2017-08-18T07:17:33.412Z,77.12
2017-08-18T07:18:33.422Z,76.07
2017-08-18T07:19:33.357Z,75.53
2017-08-18T07:20:56.607Z,74.70
2017-08-18T07:21:33.503Z,72.84
2017-08-18T07:22:33.351Z,71.59
2017-08-18T07:23:54.151Z,72.90
2017-08-18T07:24:34.393Z,72.13
2017-08-18T07:25:33.606Z,72.65
2017-08-18T07:26:33.513Z,73.91
2017-08-18T07:27:54.337Z,73.25
2017-08-18T07:28:33.409Z,71.01
2017-08-18T07:29:33.438Z,71.99
2017-08-18T07:30:33.420Z,69.93
2017-08-18T07:31:54.463Z,71.37
2017-08-18T07:32:33.444Z,71.44
2017-08-18T07:33:33.487Z,72.70
2017-08-18T07:34:54.158Z,72.91
2017-08-18T07:35:33.440Z,72.44
2017-08-18T07:36:33.558Z,71.71
2017-08-18T07:37:33.500Z,71.45
2017-08-18T07:38:54.229Z,71.59
2017-08-18T07:39:33.511Z,70.71
2017-08-18T07:40:33.416Z,70.07
2017-08-18T07:41:54.270Z,70.01
2017-08-18T07:42:31.628Z,70.01
2017-08-18T07:43:23.461Z,69.01
2017-08-18T07:43:54.686Z,69.71
2017-08-18T07:44:42.406Z,69.27
2017-08-18T07:45:54.578Z,70.79
2017-08-18T07:46:33.451Z,70.52
2017-08-18T07:47:33.460Z,68.94
2017-08-18T07:48:33.493Z,69.27
2017-08-18T07:49:54.361Z,70.37
2017-08-18T07:50:33.478Z,70.41
2017-08-18T07:51:33.435Z,70.44
2017-08-18T07:52:54.251Z,71.47
2017-08-18T07:53:33.477Z,70.52
2017-08-18T07:54:33.609Z,70.72
2017-08-18T07:55:33.668Z,72.66
2017-08-18T07:56:54.244Z,72.04
2017-08-18T07:57:33.497Z,73.12
2017-08-18T07:58:33.477Z,71.93
2017-08-18T07:59:54.298Z,70.39
2017-08-18T08:00:33.602Z,71.31
2017-08-18T08:01:33.574Z,74.33
2017-08-18T08:02:33.543Z,71.60
2017-08-18T08:03:54.452Z,72.16
2017-08-18T08:04:33.589Z,72.41
2017-08-18T08:05:33.563Z,71.89
2017-08-18T08:06:33.531Z,71.30
2017-08-18T08:07:54.418Z,72.24
2017-08-18T08:08:31.954Z,72.24
2017-08-18T08:09:23.809Z,73.69
2017-08-18T08:09:54.995Z,71.76
2017-08-18T08:10:43.058Z,71.42
2017-08-18T08:11:54.270Z,71.78
2017-08-18T08:12:33.534Z,73.17
2017-08-18T08:13:33.550Z,75.59
2017-08-18T08:14:33.567Z,72.82
2017-08-18T08:15:54.544Z,73.41
2017-08-18T08:16:33.613Z,70.67
2017-08-18T08:17:33.635Z,69.84
2017-08-18T08:18:33.589Z,70.83
2017-08-18T08:19:54.541Z,69.44
2017-08-18T08:20:33.610Z,66.06
2017-08-18T08:21:33.568Z,68.07
2017-08-18T08:22:33.605Z,66.29
2017-08-18T08:23:54.431Z,66.25
2017-08-18T08:24:33.631Z,66.01
2017-08-18T08:25:33.694Z,66.23
2017-08-18T08:26:33.628Z,66.71
2017-08-18T08:27:54.606Z,66.86
2017-08-18T08:28:33.657Z,68.70
2017-08-18T08:29:45.840Z,66.70
2017-08-18T08:30:37.746Z,68.52
2017-08-18T08:31:54.436Z,68.30
2017-08-18T08:32:33.638Z,69.89
2017-08-18T08:33:33.674Z,70.25
2017-08-18T08:34:33.683Z,70.23
2017-08-18T08:35:54.418Z,69.44
2017-08-18T08:36:33.633Z,69.01
2017-08-18T08:37:33.657Z,68.01
2017-08-18T08:38:33.613Z,66.99
2017-08-18T08:39:54.407Z,67.56
2017-08-18T08:40:33.612Z,67.58
2017-08-18T08:41:33.637Z,66.77
2017-08-18T08:42:33.647Z,68.50
2017-08-18T08:43:54.403Z,66.59
2017-08-18T08:44:33.715Z,67.48
2017-08-18T08:45:33.623Z,66.92
2017-08-18T08:46:33.633Z,66.18
2017-08-18T08:47:54.539Z,67.08
2017-08-18T08:48:33.653Z,68.74
2017-08-18T08:49:39.557Z,68.30
2017-08-18T08:50:33.660Z,68.21
2017-08-18T08:51:54.529Z,66.71
2017-08-18T08:52:33.769Z,65.21
2017-08-18T08:53:33.657Z,67.10
2017-08-18T08:54:54.446Z,66.73
2017-08-18T08:55:33.698Z,62.44
2017-08-18T08:56:33.710Z,65.29
2017-08-18T08:57:33.647Z,63.00
2017-08-18T08:58:54.465Z,64.20
2017-08-18T08:59:33.707Z,63.69
2017-08-18T09:00:34.116Z,65.26
2017-08-18T09:01:34.031Z,65.77
2017-08-18T09:02:54.497Z,66.04
2017-08-18T09:03:33.727Z,65.54
2017-08-18T09:04:33.714Z,66.64
2017-08-18T09:05:33.874Z,67.42
2017-08-18T09:06:54.502Z,66.63
2017-08-18T09:07:33.702Z,66.60
2017-08-18T09:08:33.691Z,66.26
2017-08-18T09:09:33.754Z,66.73
2017-08-18T09:10:54.574Z,67.35
2017-08-18T09:11:33.777Z,66.51
2017-08-18T09:12:33.839Z,69.32
2017-08-18T09:13:54.747Z,68.52
2017-08-18T09:14:33.752Z,68.85
2017-08-18T09:15:33.822Z,66.28
2017-08-18T09:16:33.813Z,67.27
2017-08-18T09:17:54.573Z,65.70
2017-08-18T09:18:33.800Z,65.86
2017-08-18T09:19:33.883Z,64.96
2017-08-18T09:20:34.156Z,65.05
2017-08-18T09:21:54.615Z,64.99
2017-08-18T09:22:33.843Z,65.45
2017-08-18T09:23:33.819Z,67.04
2017-08-18T09:24:33.794Z,66.20
2017-08-18T09:25:54.584Z,67.87
2017-08-18T09:26:33.770Z,67.45
2017-08-18T09:27:33.807Z,67.49
2017-08-18T09:28:33.813Z,66.42
2017-08-18T09:29:54.875Z,67.26
2017-08-18T09:30:33.790Z,65.60
2017-08-18T09:31:33.741Z,64.81
2017-08-18T09:32:33.796Z,65.65
2017-08-18T09:33:54.688Z,67.89
2017-08-18T09:34:33.866Z,68.01
2017-08-18T09:35:33.921Z,67.35
2017-08-18T09:36:33.873Z,64.10
2017-08-18T09:37:54.943Z,64.58
2017-08-18T09:38:33.859Z,64.54
2017-08-18T09:39:33.818Z,65.47
2017-08-18T09:40:33.883Z,63.14
2017-08-18T09:41:54.705Z,65.04
2017-08-18T09:42:33.802Z,64.48
2017-08-18T09:43:33.873Z,64.17
2017-08-18T09:44:54.643Z,64.89
2017-08-18T09:45:33.792Z,65.85
2017-08-18T09:46:33.812Z,65.27
2017-08-18T09:47:33.829Z,66.86
2017-08-18T09:48:54.674Z,67.55
2017-08-18T09:49:33.875Z,65.32
2017-08-18T09:50:33.867Z,66.97
2017-08-18T09:51:54.825Z,67.66
2017-08-18T09:52:33.843Z,65.84
2017-08-18T09:53:33.824Z,66.73
2017-08-18T09:54:33.907Z,68.27
2017-08-18T09:55:54.830Z,67.66
2017-08-18T09:56:33.864Z,68.35
2017-08-18T09:57:33.817Z,66.85
2017-08-18T09:58:33.877Z,67.52
2017-08-18T09:59:54.684Z,67.60
2017-08-18T10:00:33.933Z,67.94
2017-08-18T10:01:33.942Z,69.12
2017-08-18T10:02:54.573Z,69.04
2017-08-18T10:03:33.878Z,68.13
2017-08-18T10:04:33.843Z,69.15
2017-08-18T10:05:33.894Z,69.47
2017-08-18T10:06:54.595Z,70.06
2017-08-18T10:07:32.083Z,70.06
2017-08-18T10:08:23.827Z,68.93
2017-08-18T10:08:54.927Z,69.32
2017-08-18T10:09:42.880Z,69.20
2017-08-18T10:10:54.502Z,70.67
2017-08-18T10:11:33.892Z,68.00
2017-08-18T10:12:33.843Z,68.27
2017-08-18T10:13:33.896Z,68.04
2017-08-18T10:14:54.684Z,68.44
2017-08-18T10:15:34.002Z,70.63
2017-08-18T10:16:33.945Z,69.71
2017-08-18T10:17:33.944Z,70.68
2017-08-18T10:18:54.614Z,69.74
2017-08-18T10:19:33.955Z,69.89
2017-08-18T10:20:33.972Z,69.33
2017-08-18T10:21:33.970Z,69.72
2017-08-18T10:22:54.759Z,70.03
2017-08-18T10:23:33.918Z,70.74
2017-08-18T10:24:33.964Z,71.35
2017-08-18T10:25:34.029Z,71.33
2017-08-18T10:26:54.808Z,70.47
2017-08-18T10:27:33.994Z,71.23
2017-08-18T10:28:33.921Z,71.60
2017-08-18T10:29:33.941Z,71.21
2017-08-18T10:30:54.817Z,71.00
2017-08-18T10:31:32.356Z,71.00
2017-08-18T10:32:24.336Z,71.24
2017-08-18T10:32:55.466Z,71.27
2017-08-18T10:33:43.449Z,71.79
2017-08-18T17:18:15.063Z,97.27
2017-08-18T17:18:23.815Z,98.75
2017-08-18T17:19:24.210Z,99.84
2017-08-18T17:20:23.788Z,99.38
2017-08-18T17:21:25.040Z,100.00
2017-08-18T17:22:25.013Z,100.00
2017-08-18T17:23:24.962Z,98.75
2017-08-18T17:24:24.985Z,100.00
2017-08-18T17:25:24.996Z,99.76
2017-08-18T17:26:25.044Z,100.00
2017-08-18T17:27:25.083Z,100.00
2017-08-18T17:28:25.024Z,100.00
2017-08-18T17:29:25.448Z,100.00
2017-08-18T17:30:25.698Z,100.00
2017-08-18T17:31:25.533Z,100.00
2017-08-18T17:32:25.470Z,100.00
2017-08-18T17:33:25.581Z,100.00
2017-08-18T17:34:25.516Z,100.00
2017-08-18T17:35:25.478Z,100.00
2017-08-18T17:36:25.516Z,100.00
2017-08-18T17:37:25.570Z,100.00
2017-08-18T17:38:25.029Z,100.00
2017-08-18T17:39:25.051Z,100.00
2017-08-18T17:40:25.070Z,100.00
2017-08-18T17:41:25.322Z,100.00
2017-08-18T17:42:25.117Z,100.00
2017-08-18T17:43:25.076Z,100.00
2017-08-18T17:44:25.130Z,100.00
2017-08-18T17:45:25.023Z,100.00
2017-08-18T17:46:25.492Z,100.00
2017-08-18T17:47:25.524Z,100.00
2017-08-18T17:48:25.458Z,100.00
2017-08-18T17:49:25.479Z,100.00
2017-08-18T17:50:25.620Z,100.00
2017-08-18T17:51:25.406Z,100.00
2017-08-18T17:52:25.642Z,100.00
2017-08-18T17:53:25.538Z,100.00
2017-08-18T17:54:25.503Z,100.00
2017-08-18T17:55:25.547Z,100.00
2017-08-18T17:56:25.056Z,100.00
2017-08-18T17:57:25.123Z,100.00
2017-08-18T17:58:25.077Z,100.00
2017-08-18T17:59:25.094Z,100.00
2017-08-18T18:00:25.116Z,100.00
2017-08-18T18:01:25.157Z,100.00
2017-08-18T18:02:25.180Z,100.00
2017-08-18T18:03:25.129Z,100.00
2017-08-18T18:04:25.501Z,100.00
2017-08-18T18:05:25.466Z,100.00
2017-08-18T18:06:25.515Z,100.00
2017-08-18T18:07:25.551Z,100.00
2017-08-18T18:08:25.625Z,100.00
2017-08-18T18:09:25.498Z,100.00
2017-08-18T18:10:25.566Z,100.00
2017-08-18T18:11:25.480Z,100.00
2017-08-18T18:12:25.584Z,100.00
2017-08-18T18:13:25.129Z,100.00
2017-08-18T18:14:25.126Z,100.00
2017-08-18T18:15:25.118Z,100.00
2017-08-18T18:16:25.115Z,100.00
2017-08-18T18:17:25.173Z,100.00
2017-08-18T18:18:25.155Z,100.00
2017-08-18T18:19:25.167Z,100.00
2017-08-18T18:20:25.183Z,100.00
2017-08-18T18:21:25.525Z,100.00
2017-08-18T18:22:25.622Z,100.00
2017-08-18T18:23:25.596Z,100.00
2017-08-18T18:24:25.566Z,100.00
2017-08-18T18:25:25.640Z,100.00
2017-08-18T18:26:25.515Z,100.00
2017-08-18T18:27:25.627Z,100.00
2017-08-18T18:28:25.744Z,100.00
2017-08-18T18:29:25.636Z,100.00
2017-08-18T18:30:25.176Z,100.00
2017-08-18T18:31:25.150Z,100.00
2017-08-18T18:32:25.131Z,100.00
2017-08-18T18:33:25.196Z,100.00
2017-08-18T18:34:25.160Z,100.00
2017-08-18T18:35:25.120Z,100.00
2017-08-18T18:36:25.173Z,100.00
2017-08-18T18:37:25.176Z,100.00
2017-08-18T18:38:25.653Z,100.00
2017-08-18T18:39:25.667Z,100.00
2017-08-18T18:40:25.725Z,100.00
2017-08-18T18:41:25.573Z,100.00
2017-08-18T18:42:26.160Z,100.00
2017-08-18T18:43:25.652Z,100.00
2017-08-18T18:44:25.573Z,100.00
2017-08-18T18:45:25.652Z,100.00
2017-08-18T18:46:25.651Z,100.00
2017-08-18T18:47:25.653Z,100.00
2017-08-18T18:48:25.253Z,100.00
2017-08-18T18:49:30.897Z,100.00
2017-08-18T18:50:25.372Z,100.00
2017-08-18T18:51:25.684Z,100.00
2017-08-18T18:52:25.278Z,100.00
2017-08-18T18:53:25.289Z,100.00
2017-08-18T18:54:25.240Z,100.00
2017-08-18T18:55:25.300Z,100.00
2017-08-18T18:56:25.286Z,100.00
2017-08-18T18:57:25.677Z,100.00
2017-08-18T18:58:25.602Z,100.00
2017-08-18T18:59:25.622Z,100.00
2017-08-18T19:00:25.741Z,100.00
2017-08-18T19:01:25.700Z,100.00
2017-08-18T19:02:25.664Z,100.00
2017-08-18T19:03:25.651Z,100.00
2017-08-18T19:04:25.673Z,100.00
2017-08-18T19:05:25.853Z,100.00
2017-08-18T19:06:25.244Z,100.00
2017-08-18T19:07:25.274Z,100.00
2017-08-18T19:08:25.265Z,100.00
2017-08-18T19:09:25.272Z,100.00
2017-08-18T19:10:25.361Z,100.00
2017-08-18T19:11:25.322Z,99.95
2017-08-18T19:12:25.272Z,100.00
2017-08-18T19:13:25.311Z,100.00
2017-08-18T19:14:25.695Z,100.00
2017-08-18T19:15:25.783Z,100.00
2017-08-18T19:16:25.739Z,100.00
2017-08-18T19:17:25.832Z,100.00
2017-08-18T19:18:25.712Z,100.00
2017-08-18T19:19:25.745Z,100.00
2017-08-18T19:20:25.767Z,100.00
2017-08-18T19:21:25.720Z,100.00
2017-08-18T19:22:25.794Z,100.00
2017-08-18T19:23:25.311Z,100.00
2017-08-18T19:24:25.321Z,100.00
2017-08-18T19:25:25.421Z,100.00
2017-08-18T19:26:25.341Z,100.00
2017-08-18T19:27:25.323Z,100.00
2017-08-18T19:28:25.322Z,100.00
2017-08-18T19:29:25.410Z,100.00
2017-08-18T19:30:25.372Z,100.00
2017-08-18T19:31:25.286Z,100.00
2017-08-18T19:32:25.397Z,100.00
2017-08-18T19:33:25.395Z,100.00
2017-08-18T19:34:25.779Z,100.00
2017-08-18T19:35:25.761Z,99.53
2017-08-18T19:36:25.779Z,100.00
2017-08-18T19:37:25.747Z,100.00
2017-08-18T19:38:25.819Z,99.06
2017-08-18T19:39:25.720Z,100.00
2017-08-18T19:40:25.886Z,100.00
2017-08-18T19:41:25.818Z,100.00
2017-08-18T19:42:25.415Z,100.00
2017-08-18T19:43:25.416Z,100.00
2017-08-18T19:44:25.399Z,100.00
2017-08-18T19:45:25.484Z,100.00
2017-08-18T19:46:25.336Z,100.00
2017-08-18T19:47:25.457Z,100.00
2017-08-18T19:48:25.455Z,100.00
2017-08-18T19:49:25.385Z,100.00
2017-08-18T19:50:25.882Z,100.00
2017-08-18T19:51:25.867Z,100.00
2017-08-18T19:52:25.965Z,100.00
2017-08-18T19:53:25.869Z,100.00
2017-08-18T19:54:25.845Z,100.00
2017-08-18T19:55:25.885Z,100.00
2017-08-18T19:56:25.815Z,100.00
2017-08-18T19:57:25.944Z,100.00
2017-08-18T19:58:25.887Z,100.00
2017-08-18T19:59:25.372Z,100.00
2017-08-18T20:00:25.937Z,100.00
2017-08-18T20:01:25.418Z,100.00
2017-08-18T20:02:25.442Z,100.00
2017-08-18T20:03:25.446Z,100.00
2017-08-18T20:04:25.460Z,100.00
2017-08-18T20:05:25.532Z,100.00
2017-08-18T20:06:25.483Z,100.00
2017-08-18T20:07:25.437Z,100.00
2017-08-18T20:08:25.863Z,100.00
2017-08-18T20:09:25.907Z,100.00
2017-08-18T20:10:25.876Z,100.00
2017-08-18T20:11:25.860Z,100.00
2017-08-18T20:12:25.831Z,100.00
2017-08-18T20:13:25.825Z,100.00
2017-08-18T20:14:25.928Z,100.00
2017-08-18T20:15:25.955Z,100.00
2017-08-18T20:16:25.954Z,100.00
2017-08-18T20:17:25.945Z,100.00
2017-08-18T20:18:25.549Z,100.00
2017-08-18T20:19:25.523Z,100.00
2017-08-18T20:20:25.487Z,100.00